Time;durP1;ratioP1;P1;durP2;ratioP2;P2;SDS_P1;SDS_P2;PMS_P1;PMS_P2;Temp;Humidity;BMP_temperature;BMP_pressure;BME280_temperature;BME280_humidity;BME280_pressure;Samples;Min_cycle;Max_cycle;Signal;HPM_P1;HPM_P2
2023/03/15 00:01:37;;;;;;;7.67;2.97;;;1.00;99.90;;;;;;5035671;28;20492;-57
2023/03/15 00:04:05;;;;;;;6.50;2.60;;;1.00;99.90;;;;;;5045399;28;20463;-56
2023/03/15 00:06:32;;;;;;;12.17;2.63;;;1.00;99.90;;;;;;5040753;28;20474;-56
2023/03/15 00:09:00;;;;;;;10.17;3.20;;;1.00;99.90;;;;;;5049416;28;20462;-56
2023/03/15 00:11:29;;;;;;;12.53;3.43;;;1.00;99.90;;;;;;5041744;28;20536;-57
2023/03/15 00:13:56;;;;;;;10.17;2.83;;;1.00;99.90;;;;;;5037624;28;20554;-56
2023/03/15 00:16:25;;;;;;;12.47;2.97;;;1.00;99.90;;;;;;5041810;28;20981;-55
2023/03/15 00:18:54;;;;;;;11.73;3.37;;;1.00;99.90;;;;;;5049258;28;20466;-56
2023/03/15 00:21:22;;;;;;;6.53;2.27;;;1.00;99.90;;;;;;5037913;28;20540;-56
2023/03/15 00:23:49;;;;;;;12.80;2.50;;;1.00;99.90;;;;;;5031278;28;20486;-56
2023/03/15 00:26:15;;;;;;;7.17;2.27;;;0.90;99.90;;;;;;5031706;28;20501;-56
2023/03/15 00:28:42;;;;;;;9.90;2.13;;;1.00;99.90;;;;;;5050765;28;20511;-57
2023/03/15 00:31:14;;;;;;;4.60;2.10;;;1.00;99.90;;;;;;5044448;28;20458;-57
2023/03/15 00:33:41;;;;;;;9.87;3.03;;;1.10;99.90;;;;;;5040009;28;20463;-56
2023/03/15 00:36:10;;;;;;;11.73;2.57;;;1.10;99.90;;;;;;5036190;28;20526;-55
2023/03/15 00:38:38;;;;;;;12.03;2.33;;;1.00;99.90;;;;;;5047482;28;20486;-55
2023/03/15 00:41:06;;;;;;;5.60;2.00;;;1.00;99.90;;;;;;5038653;28;20471;-58
2023/03/15 00:43:33;;;;;;;7.50;2.80;;;1.00;99.90;;;;;;5042597;28;20494;-57
2023/03/15 00:46:00;;;;;;;8.83;2.70;;;1.00;99.90;;;;;;5044778;28;20904;-55
2023/03/15 00:48:27;;;;;;;4.47;2.10;;;1.00;99.90;;;;;;5039395;28;20826;-56
2023/03/15 00:51:02;;;;;;;5.33;2.03;;;1.00;99.90;;;;;;5047910;28;20573;-57
2023/03/15 00:53:30;;;;;;;5.73;2.07;;;1.00;99.90;;;;;;5050024;28;20497;-57
2023/03/15 00:55:57;;;;;;;11.03;2.43;;;1.00;99.90;;;;;;5042665;28;20609;-55
2023/03/15 00:58:24;;;;;;;9.57;2.13;;;1.00;99.90;;;;;;5050860;28;20463;-55
2023/03/15 01:00:51;;;;;;;4.53;1.80;;;0.90;99.90;;;;;;5036595;28;20491;-55
2023/03/15 01:03:17;;;;;;;4.67;1.77;;;0.90;99.90;;;;;;5051815;28;20462;-55
2023/03/15 01:05:44;;;;;;;5.70;1.83;;;0.90;99.90;;;;;;5050416;28;20489;-55
2023/03/15 01:08:11;;;;;;;6.77;1.80;;;0.90;99.90;;;;;;5047643;28;20557;-55
2023/03/15 01:10:38;;;;;;;6.33;2.00;;;1.00;99.90;;;;;;5045237;28;20504;-56
2023/03/15 01:13:06;;;;;;;8.03;2.50;;;0.90;99.90;;;;;;5049792;28;20882;-56
2023/03/15 01:15:32;;;;;;;3.47;2.00;;;0.90;99.90;;;;;;5040962;28;20514;-56
2023/03/15 01:17:59;;;;;;;8.13;1.87;;;1.00;99.90;;;;;;5050880;28;20489;-57
2023/03/15 01:20:26;;;;;;;8.63;2.40;;;1.00;99.90;;;;;;5038727;28;20491;-55
2023/03/15 01:22:53;;;;;;;8.83;2.23;;;1.00;99.90;;;;;;5042770;28;20825;-55
2023/03/15 01:25:19;;;;;;;8.80;2.40;;;0.90;99.90;;;;;;5042586;28;20455;-57
2023/03/15 01:27:47;;;;;;;7.13;1.87;;;0.90;99.90;;;;;;5049061;28;20510;-57
2023/03/15 01:30:14;;;;;;;5.60;2.70;;;1.00;99.90;;;;;;5042253;28;20685;-57
2023/03/15 01:32:40;;;;;;;4.63;2.50;;;0.90;99.90;;;;;;5042156;28;20458;-55
2023/03/15 01:35:08;;;;;;;8.53;2.27;;;0.90;99.90;;;;;;5037983;28;20482;-55
2023/03/15 01:37:34;;;;;;;6.20;1.97;;;1.00;99.90;;;;;;5040777;28;20536;-55
2023/03/15 01:40:05;;;;;;;5.97;1.83;;;1.00;99.90;;;;;;5049215;28;21026;-57
2023/03/15 01:42:31;;;;;;;2.60;1.77;;;0.90;99.90;;;;;;5039461;28;20508;-55
2023/03/15 01:45:00;;;;;;;8.17;2.40;;;0.90;99.90;;;;;;5043581;28;20451;-55
2023/03/15 01:47:27;;;;;;;6.50;2.40;;;0.80;99.90;;;;;;5044587;28;20510;-56
2023/03/15 01:50:01;;;;;;;8.13;2.27;;;0.90;99.90;;;;;;5050928;28;20826;-57
2023/03/15 01:52:33;;;;;;;8.30;2.30;;;0.90;99.90;;;;;;5044281;28;20519;-56
2023/03/15 01:55:07;;;;;;;7.10;2.07;;;0.90;99.90;;;;;;5038777;28;20473;-57
2023/03/15 01:57:37;;;;;;;12.73;2.70;;;0.90;99.90;;;;;;5042248;28;20589;-57
2023/03/15 02:00:10;;;;;;;7.07;1.87;;;0.80;99.90;;;;;;5044539;28;20493;-56
2023/03/15 02:02:45;;;;;;;5.00;1.87;;;0.80;99.90;;;;;;5040137;28;20541;-57
2023/03/15 02:05:14;;;;;;;6.43;1.97;;;0.80;99.90;;;;;;5033425;28;20442;-57
2023/03/15 02:07:49;;;;;;;12.73;2.17;;;0.80;99.90;;;;;;5046213;28;21031;-56
2023/03/15 02:10:23;;;;;;;7.93;1.93;;;0.80;99.90;;;;;;5044823;28;20462;-57
2023/03/15 02:12:51;;;;;;;7.40;2.43;;;0.70;99.90;;;;;;5043470;28;20465;-57
2023/03/15 02:15:20;;;;;;;6.00;2.20;;;0.70;99.90;;;;;;5035747;28;20471;-56
2023/03/15 02:17:48;;;;;;;7.10;2.13;;;0.70;99.90;;;;;;5057560;23;20520;-56
2023/03/15 02:20:29;;;;;;;4.90;1.90;;;0.70;99.90;;;;;;5047936;28;20463;-53
2023/03/15 02:22:57;;;;;;;12.00;2.63;;;0.70;99.90;;;;;;5050224;28;20512;-52
2023/03/15 02:25:34;;;;;;;7.80;2.37;;;0.70;99.90;;;;;;5048770;28;20516;-53
2023/03/15 02:28:05;;;;;;;6.43;2.57;;;0.70;99.90;;;;;;5041135;28;20590;-53
2023/03/15 02:30:32;;;;;;;4.67;2.03;;;0.60;99.90;;;;;;5029576;28;20482;-54
2023/03/15 02:33:01;;;;;;;18.27;2.47;;;0.60;99.90;;;;;;5029953;28;20455;-53
2023/03/15 02:35:31;;;;;;;9.60;2.33;;;0.60;99.90;;;;;;5030823;28;20459;-53
2023/03/15 02:37:58;;;;;;;6.80;2.50;;;0.60;99.90;;;;;;5029763;28;20493;-53
2023/03/15 02:40:27;;;;;;;11.53;2.20;;;0.50;99.90;;;;;;5031058;28;20467;-53
2023/03/15 02:42:56;;;;;;;8.70;2.10;;;0.50;99.90;;;;;;5025664;28;20466;-53
2023/03/15 02:45:26;;;;;;;8.97;2.33;;;0.50;99.90;;;;;;5026084;28;20455;-53
2023/03/15 02:47:53;;;;;;;5.70;2.07;;;0.50;99.90;;;;;;5032291;28;20891;-54
2023/03/15 02:50:20;;;;;;;6.07;2.50;;;0.60;99.90;;;;;;5028732;28;20541;-53
2023/03/15 02:52:46;;;;;;;5.47;2.10;;;0.50;99.90;;;;;;5035309;28;20463;-53
2023/03/15 02:55:13;;;;;;;9.40;2.20;;;0.50;99.90;;;;;;5030895;28;20459;-54
2023/03/15 02:57:39;;;;;;;8.40;2.53;;;0.40;99.90;;;;;;5031065;28;20483;-53
2023/03/15 03:00:13;;;;;;;4.70;2.43;;;0.40;99.90;;;;;;5023678;28;20491;-53
2023/03/15 03:02:41;;;;;;;8.10;2.33;;;0.40;99.90;;;;;;5028393;28;20491;-53
2023/03/15 03:05:09;;;;;;;6.33;2.13;;;0.40;99.90;;;;;;5031217;28;20459;-53
2023/03/15 03:07:36;;;;;;;8.73;2.20;;;0.30;99.90;;;;;;5031635;28;20513;-53
2023/03/15 03:10:02;;;;;;;9.90;1.90;;;0.40;99.90;;;;;;5028760;28;21100;-53
2023/03/15 03:12:29;;;;;;;7.10;2.00;;;0.30;99.90;;;;;;5030255;28;21031;-53
2023/03/15 03:14:56;;;;;;;3.30;1.90;;;0.30;99.90;;;;;;5029483;28;20570;-53
2023/03/15 03:17:23;;;;;;;9.30;2.40;;;0.30;99.90;;;;;;5030339;28;20493;-54
2023/03/15 03:19:51;;;;;;;6.43;2.07;;;0.30;99.90;;;;;;5032596;28;20490;-53
2023/03/15 03:22:18;;;;;;;9.77;3.20;;;0.30;99.90;;;;;;5037970;28;20462;-53
2023/03/15 03:24:47;;;;;;;6.97;2.37;;;0.30;99.90;;;;;;5030061;28;20569;-52
2023/03/15 03:27:29;;;;;;;7.77;2.07;;;0.30;99.90;;;;;;5031011;28;20480;-53
2023/03/15 03:30:01;;;;;;;4.93;2.00;;;0.30;99.90;;;;;;5026976;28;20495;-53
2023/03/15 03:32:49;;;;;;;4.00;1.77;;;0.30;99.90;;;;;;5022555;28;20843;-53
2023/03/15 03:35:22;;;;;;;5.23;1.93;;;0.30;99.90;;;;;;5026676;28;20470;-53
2023/03/15 03:38:00;;;;;;;8.17;2.10;;;0.20;99.90;;;;;;5030873;28;20498;-53
2023/03/15 03:40:50;;;;;;;4.00;2.20;;;0.20;99.90;;;;;;5033395;28;21299;-53
2023/03/15 03:43:24;;;;;;;7.20;2.00;;;0.10;99.90;;;;;;5032392;28;20447;-53
2023/03/15 03:46:07;;;;;;;5.93;1.93;;;0.20;99.90;;;;;;5028255;28;20832;-52
2023/03/15 03:48:38;;;;;;;4.20;2.10;;;0.20;99.90;;;;;;5034905;28;20480;-53
2023/03/15 03:51:27;;;;;;;6.13;2.03;;;0.20;99.90;;;;;;5036441;28;20447;-53
2023/03/15 03:54:12;;;;;;;4.50;2.20;;;0.20;99.90;;;;;;5022327;28;20467;-52
2023/03/15 03:59:54;;;;;;;9.83;2.03;;;0.30;99.90;;;;;;5027216;28;20481;-53
2023/03/15 04:02:28;;;;;;;5.30;2.30;;;0.30;99.90;;;;;;5029698;28;20486;-54
2023/03/15 04:05:24;;;;;;;7.57;2.27;;;0.30;99.90;;;;;;5022383;28;20459;-53
2023/03/15 04:08:21;;;;;;;12.03;2.40;;;0.40;99.90;;;;;;5030754;28;20855;-53
2023/03/15 04:11:04;;;;;;;9.73;2.53;;;0.40;99.90;;;;;;5032162;28;20880;-53
2023/03/15 04:13:37;;;;;;;8.70;2.10;;;0.40;99.90;;;;;;5030033;28;20459;-53
2023/03/15 04:16:21;;;;;;;6.53;1.80;;;0.30;99.90;;;;;;5023627;28;20467;-53
2023/03/15 04:21:46;;;;;;;5.63;2.43;;;0.30;99.90;;;;;;4998949;28;20453;-53
2023/03/15 04:24:29;;;;;;;7.30;2.70;;;0.20;99.90;;;;;;5027172;28;20462;-53
2023/03/15 04:27:05;;;;;;;9.40;2.40;;;0.20;99.90;;;;;;5025607;28;20466;-53
2023/03/15 04:29:35;;;;;;;5.87;1.97;;;0.20;99.90;;;;;;5025229;28;20470;-53
2023/03/15 04:32:16;;;;;;;8.73;2.63;;;0.30;99.90;;;;;;5020736;28;20521;-53
2023/03/15 04:37:45;;;;;;;9.53;2.10;;;0.10;99.90;;;;;;5030194;28;20486;-53
2023/03/15 04:40:29;;;;;;;8.00;2.10;;;0.10;99.90;;;;;;5037201;28;20507;-53
2023/03/15 04:43:11;;;;;;;11.93;2.50;;;0.00;99.90;;;;;;5029559;28;20463;-53
2023/03/15 04:45:54;;;;;;;8.57;3.10;;;0.10;99.90;;;;;;5020328;28;20459;-54
2023/03/15 04:51:48;;;;;;;4.30;2.47;;;0.00;99.90;;;;;;5020055;28;20488;-54
2023/03/15 04:54:39;;;;;;;8.93;2.50;;;0.00;99.90;;;;;;5010934;28;20904;-53
2023/03/15 05:00:35;;;;;;;10.87;3.23;;;0.00;99.90;;;;;;5020670;28;20505;-53
2023/03/15 05:03:17;;;;;;;6.37;2.67;;;-0.10;99.90;;;;;;5030764;28;20463;-53
2023/03/15 05:06:11;;;;;;;6.13;2.40;;;0.00;99.90;;;;;;5028557;28;20532;-53
2023/03/15 05:08:54;;;;;;;8.67;2.57;;;-0.10;99.90;;;;;;5022804;28;20509;-52
2023/03/15 05:11:38;;;;;;;8.60;2.03;;;-0.10;99.90;;;;;;5029037;28;20558;-52
2023/03/15 05:14:14;;;;;;;5.33;2.60;;;-0.10;99.90;;;;;;5023811;28;20477;-53
2023/03/15 05:17:06;;;;;;;8.10;2.53;;;0.00;99.90;;;;;;5031224;28;20842;-52
2023/03/15 05:19:34;;;;;;;9.87;2.43;;;0.00;99.90;;;;;;5024045;28;20509;-52
2023/03/15 05:22:15;;;;;;;3.90;2.00;;;0.00;99.90;;;;;;5032760;28;20466;-53
2023/03/15 05:25:07;;;;;;;5.20;2.20;;;0.00;99.90;;;;;;5031785;28;20471;-53
2023/03/15 05:28:00;;;;;;;8.80;2.40;;;0.10;99.90;;;;;;5023602;28;22055;-52
2023/03/15 05:30:41;;;;;;;14.17;3.50;;;0.10;99.90;;;;;;5020038;28;20973;-53
2023/03/15 05:33:23;;;;;;;14.23;3.30;;;0.20;99.90;;;;;;5020028;28;20462;-53
2023/03/15 05:38:48;;;;;;;6.50;2.60;;;0.20;99.90;;;;;;5034142;28;20507;-52
2023/03/15 05:41:23;;;;;;;7.20;2.63;;;0.30;99.90;;;;;;5040294;28;20468;-53
2023/03/15 05:44:21;;;;;;;5.43;2.40;;;0.40;99.90;;;;;;5030564;28;20464;-53
2023/03/15 05:47:30;;;;;;;10.23;2.77;;;0.50;99.90;;;;;;5026534;28;20477;-53
2023/03/15 05:50:27;;;;;;;13.40;3.07;;;0.60;99.90;;;;;;5029227;28;20446;-53
2023/03/15 05:53:03;;;;;;;8.00;2.13;;;0.70;99.90;;;;;;5034313;28;20451;-53
2023/03/15 05:55:32;;;;;;;6.10;2.60;;;0.80;99.90;;;;;;5033025;28;20845;-54
2023/03/15 05:58:02;;;;;;;10.60;2.50;;;0.80;99.90;;;;;;5032067;28;20871;-53
2023/03/15 06:00:42;;;;;;;10.17;3.93;;;0.80;99.90;;;;;;5034128;28;20455;-52
2023/03/15 06:03:21;;;;;;;9.20;2.70;;;0.80;99.90;;;;;;5020599;28;20472;-53
2023/03/15 06:06:07;;;;;;;10.40;3.63;;;0.90;99.90;;;;;;5027129;28;20542;-53
2023/03/15 06:08:37;;;;;;;9.23;2.50;;;1.00;99.90;;;;;;5033752;28;20474;-53
2023/03/15 06:11:10;;;;;;;9.40;2.23;;;1.00;99.90;;;;;;5032048;28;20463;-53
2023/03/15 06:13:51;;;;;;;8.73;2.87;;;1.10;99.90;;;;;;5031950;28;20941;-52
2023/03/15 06:16:25;;;;;;;8.30;2.23;;;1.10;99.90;;;;;;5033639;28;20436;-53
2023/03/15 06:19:03;;;;;;;16.63;4.57;;;1.20;99.90;;;;;;5032464;28;20505;-53
2023/03/15 06:21:33;;;;;;;13.03;2.83;;;1.30;99.90;;;;;;5026867;28;20462;-53
2023/03/15 06:26:55;;;;;;;14.53;7.40;;;1.40;99.90;;;;;;5029474;28;20531;-52
2023/03/15 06:29:34;;;;;;;10.50;5.70;;;1.40;99.90;;;;;;5025010;28;20473;-53
2023/03/15 06:35:27;;;;;;;6.10;2.50;;;1.50;99.90;;;;;;5019888;28;20461;-53
2023/03/15 06:38:23;;;;;;;15.20;2.93;;;1.60;99.90;;;;;;4992536;28;20513;-53
2023/03/15 06:40:50;;;;;;;14.20;3.33;;;1.60;99.90;;;;;;5027951;28;20463;-52
2023/03/15 06:43:18;;;;;;;9.30;2.83;;;1.60;22.40;;;;;;5030677;28;20455;-55
2023/03/15 06:45:45;;;;;;;7.53;2.67;;;1.70;76.50;;;;;;5030675;28;20478;-56
2023/03/15 06:48:13;;;;;;;17.63;3.80;;;1.60;94.40;;;;;;5030104;28;20462;-56
2023/03/15 06:50:41;;;;;;;8.80;2.50;;;1.70;99.90;;;;;;5027508;28;20459;-55
2023/03/15 06:53:08;;;;;;;9.80;2.30;;;1.70;99.90;;;;;;5032916;28;20941;-55
2023/03/15 06:55:34;;;;;;;8.80;2.83;;;1.80;72.00;;;;;;5031670;28;20545;-56
2023/03/15 06:58:01;;;;;;;14.23;3.03;;;1.80;94.50;;;;;;5032125;28;20779;-57
2023/03/15 07:00:28;;;;;;;3.63;2.20;;;1.80;99.40;;;;;;5031462;28;20949;-55
2023/03/15 07:02:54;;;;;;;8.17;3.00;;;1.90;99.90;;;;;;5008715;28;20566;-52
2023/03/15 07:05:21;;;;;;;8.33;3.00;;;1.90;21.70;;;;;;5025405;28;21030;-51
2023/03/15 07:07:49;;;;;;;7.37;2.93;;;2.00;99.90;;;;;;5022034;28;20474;-52
2023/03/15 07:10:15;;;;;;;6.57;2.27;;;2.10;99.90;;;;;;5012138;28;20460;-51
2023/03/15 07:12:42;;;;;;;4.70;2.90;;;2.20;75.90;;;;;;5024642;28;20493;-51
2023/03/15 07:15:09;;;;;;;4.50;2.77;;;2.30;20.20;;;;;;5024884;28;20509;-52
2023/03/15 07:17:36;;;;;;;7.87;3.07;;;2.30;80.30;;;;;;5016178;28;20544;-51
2023/03/15 07:20:04;;;;;;;9.07;3.10;;;2.40;81.20;;;;;;5031563;28;20872;-51
2023/03/15 07:22:31;;;;;;;5.07;2.47;;;2.40;88.20;;;;;;5019409;28;20463;-51
2023/03/15 07:24:59;;;;;;;7.47;2.67;;;2.40;21.60;;;;;;5031611;28;20501;-51
2023/03/15 07:27:28;;;;;;;10.80;3.43;;;2.30;99.90;;;;;;5028308;28;20537;-51
2023/03/15 07:29:54;;;;;;;6.67;2.70;;;2.20;99.90;;;;;;5022793;28;20472;-52
2023/03/15 07:32:21;;;;;;;8.07;3.10;;;2.20;99.90;;;;;;5016112;28;20876;-51
2023/03/15 07:34:47;;;;;;;8.30;3.73;;;2.20;99.90;;;;;;5022249;28;20557;-52
2023/03/15 07:37:15;;;;;;;9.70;3.40;;;2.10;99.90;;;;;;5026737;28;22661;-51
2023/03/15 07:39:42;;;;;;;16.03;3.63;;;2.20;99.90;;;;;;5025356;28;20463;-51
2023/03/15 07:42:10;;;;;;;10.70;2.93;;;2.30;99.90;;;;;;5019092;28;20588;-51
2023/03/15 07:44:37;;;;;;;11.33;3.50;;;2.30;99.90;;;;;;5017115;28;20542;-51
2023/03/15 07:47:04;;;;;;;11.37;3.17;;;2.30;99.90;;;;;;5023374;28;20545;-51
2023/03/15 07:49:30;;;;;;;8.70;2.90;;;2.40;99.90;;;;;;5028575;28;20463;-51
2023/03/15 07:51:57;;;;;;;6.00;2.90;;;2.30;99.90;;;;;;5026670;28;20462;-51
2023/03/15 07:54:24;;;;;;;6.97;2.50;;;2.40;99.90;;;;;;5023618;28;20463;-51
2023/03/15 07:56:50;;;;;;;11.87;3.27;;;2.30;99.90;;;;;;5020529;28;20968;-51
2023/03/15 07:59:18;;;;;;;10.90;2.87;;;2.40;99.90;;;;;;5023098;28;20984;-50
2023/03/15 08:01:45;;;;;;;7.10;3.00;;;2.50;99.90;;;;;;5029398;28;20889;-50
2023/03/15 08:04:11;;;;;;;8.30;2.73;;;2.60;99.90;;;;;;5025509;28;20455;-52
2023/03/15 08:06:38;;;;;;;8.10;2.60;;;2.50;99.90;;;;;;5023790;28;20513;-51
2023/03/15 08:09:05;;;;;;;15.67;3.30;;;2.60;99.90;;;;;;5028623;28;20475;-51
2023/03/15 08:11:32;;;;;;;7.50;3.00;;;2.60;99.90;;;;;;5030739;28;20459;-51
2023/03/15 08:13:58;;;;;;;14.90;3.57;;;2.60;99.90;;;;;;5025081;28;20497;-51
2023/03/15 08:16:26;;;;;;;10.50;2.77;;;2.50;99.90;;;;;;5031676;28;20447;-50
2023/03/15 08:18:53;;;;;;;8.50;3.07;;;2.60;99.90;;;;;;5088976;22;20496;-53
2023/03/15 08:21:20;;;;;;;6.70;3.77;;;2.60;99.90;;;;;;5084319;28;21018;-52
2023/03/15 08:23:46;;;;;;;9.23;2.50;;;2.70;99.90;;;;;;5075945;28;20456;-52
2023/03/15 08:26:14;;;;;;;11.30;3.00;;;2.70;96.70;;;;;;5088676;28;20499;-51
2023/03/15 08:28:40;;;;;;;4.87;2.80;;;2.70;86.50;;;;;;5070592;28;20461;-52
2023/03/15 08:31:07;;;;;;;4.97;2.50;;;2.70;99.90;;;;;;5061053;28;20451;-51
2023/03/15 08:33:35;;;;;;;7.33;2.30;;;2.70;20.30;;;;;;5065747;28;20503;-53
2023/03/15 08:36:02;;;;;;;8.93;1.90;;;2.80;32.80;;;;;;5070667;28;20465;-52
2023/03/15 08:38:28;;;;;;;6.70;3.00;;;2.90;24.20;;;;;;5066169;28;20481;-52
2023/03/15 08:40:56;;;;;;;5.33;2.70;;;2.80;38.20;;;;;;5059412;28;20462;-52
2023/03/15 08:43:23;;;;;;;8.53;2.90;;;3.00;38.60;;;;;;5057942;28;20462;-53
2023/03/15 08:45:50;;;;;;;5.63;2.80;;;2.90;24.70;;;;;;5057309;28;20923;-52
2023/03/15 08:48:17;;;;;;;5.77;2.40;;;3.10;50.40;;;;;;5065716;28;20469;-53
2023/03/15 08:50:45;;;;;;;9.10;2.50;;;3.30;51.50;;;;;;5069841;28;20495;-51
2023/03/15 08:53:12;;;;;;;10.30;2.20;;;3.30;66.20;;;;;;5062830;28;20462;-52
2023/03/15 08:55:38;;;;;;;3.93;2.33;;;3.40;53.30;;;;;;5050591;28;20463;-52
2023/03/15 08:58:05;;;;;;;4.40;2.27;;;3.40;72.10;;;;;;5063311;28;20546;-52
2023/03/15 09:00:32;;;;;;;5.70;2.07;;;3.30;99.90;;;;;;5067505;28;20465;-52
2023/03/15 09:02:58;;;;;;;3.00;2.07;;;3.40;99.90;;;;;;5069839;28;20996;-52
2023/03/15 09:05:25;;;;;;;2.97;2.37;;;3.50;95.50;;;;;;5062060;28;20461;-52
2023/03/15 09:07:53;;;;;;;2.40;1.83;;;3.50;99.90;;;;;;5065024;28;20488;-53
2023/03/15 09:10:21;;;;;;;3.47;2.37;;;3.40;99.90;;;;;;5063277;28;20458;-53
2023/03/15 09:12:51;;;;;;;5.13;1.77;;;3.40;99.90;;;;;;5060513;28;21020;-52
2023/03/15 09:15:18;;;;;;;3.67;2.10;;;3.20;99.90;;;;;;5061766;28;20544;-52
2023/03/15 09:17:45;;;;;;;3.03;1.57;;;3.30;99.90;;;;;;5063204;28;20576;-53
2023/03/15 09:20:15;;;;;;;3.57;1.53;;;3.20;99.90;;;;;;5068712;28;20466;-53
2023/03/15 09:22:42;;;;;;;8.30;3.30;;;3.30;99.90;;;;;;5067061;28;20472;-53
2023/03/15 09:25:10;;;;;;;12.13;2.80;;;3.20;99.90;;;;;;5065640;28;20546;-53
2023/03/15 09:27:37;;;;;;;6.57;2.47;;;3.40;99.90;;;;;;5062630;28;20468;-52
2023/03/15 09:30:05;;;;;;;4.47;2.17;;;3.20;99.90;;;;;;5067272;28;22467;-52
2023/03/15 09:32:34;;;;;;;3.97;2.37;;;3.30;99.90;;;;;;5069118;28;20462;-52
2023/03/15 09:35:01;;;;;;;2.97;1.70;;;3.40;99.90;;;;;;5062994;28;20457;-52
2023/03/15 09:37:28;;;;;;;8.07;2.60;;;3.40;99.90;;;;;;5069257;28;20485;-52
2023/03/15 09:39:54;;;;;;;8.97;2.63;;;3.40;87.80;;;;;;5065936;28;20465;-53
2023/03/15 09:42:28;;;;;;;3.23;1.60;;;3.50;91.30;;;;;;5057018;28;20450;-53
2023/03/15 09:45:05;;;;;;;6.00;2.40;;;3.70;99.90;;;;;;5065306;28;20465;-52
2023/03/15 09:47:38;;;;;;;9.93;2.43;;;3.70;21.40;;;;;;5065713;28;20478;-52
2023/03/15 09:50:11;;;;;;;4.80;2.70;;;3.80;35.40;;;;;;5062876;28;20459;-52
2023/03/15 09:52:42;;;;;;;7.33;3.17;;;4.00;32.10;;;;;;5064601;28;20470;-53
2023/03/15 09:55:15;;;;;;;5.00;2.00;;;4.10;26.50;;;;;;5068425;28;20469;-52
2023/03/15 09:57:48;;;;;;;9.03;2.90;;;4.10;30.80;;;;;;5067865;28;20486;-53
2023/03/15 10:00:20;;;;;;;3.63;2.17;;;3.90;23.10;;;;;;5065139;28;20881;-52
2023/03/15 10:02:55;;;;;;;4.37;2.40;;;3.90;99.90;;;;;;5068630;28;20465;-52
2023/03/15 10:05:27;;;;;;;3.53;1.97;;;4.10;21.70;;;;;;5068042;28;20463;-52
2023/03/15 10:07:54;;;;;;;6.23;2.00;;;4.20;23.20;;;;;;5066228;28;20898;-52
2023/03/15 10:10:27;;;;;;;3.57;2.40;;;5.50;41.30;;;;;;5070355;28;20474;-52
2023/03/15 10:13:05;;;;;;;6.70;2.27;;;5.50;87.50;;;;;;5065477;28;20824;-52
2023/03/15 10:15:42;;;;;;;7.37;2.60;;;5.40;89.00;;;;;;5067187;28;20535;-52
2023/03/15 10:18:35;;;;;;;6.40;2.50;;;4.90;92.20;;;;;;5066199;28;20847;-52
2023/03/15 10:21:06;;;;;;;6.73;2.33;;;4.60;85.50;;;;;;5064519;28;20491;-52
2023/03/15 10:23:43;;;;;;;4.53;1.90;;;4.80;83.60;;;;;;5062874;28;20856;-52
2023/03/15 10:26:14;;;;;;;6.33;1.87;;;4.90;88.70;;;;;;5066052;28;20518;-52
2023/03/15 10:28:44;;;;;;;5.63;1.60;;;5.20;83.40;;;;;;5068167;28;20477;-52
2023/03/15 10:31:14;;;;;;;8.70;2.00;;;5.70;99.90;;;;;;5063096;28;20944;-51
2023/03/15 10:33:42;;;;;;;3.53;2.03;;;6.40;99.90;;;;;;5056070;28;20512;-52
2023/03/15 10:36:14;;;;;;;2.70;1.73;;;6.80;99.90;;;;;;5065998;28;20481;-52
2023/03/15 10:38:41;;;;;;;2.50;1.73;;;7.00;99.90;;;;;;5058568;28;20515;-52
2023/03/15 10:41:11;;;;;;;5.50;1.90;;;7.20;99.90;;;;;;5066081;28;20457;-52
2023/03/15 10:43:38;;;;;;;5.57;2.17;;;8.40;99.90;;;;;;5071619;28;20516;-52
2023/03/15 10:46:09;;;;;;;8.23;2.00;;;8.80;99.90;;;;;;5069977;28;20453;-52
2023/03/15 10:48:37;;;;;;;9.10;3.43;;;8.50;99.90;;;;;;5067333;28;20490;-52
2023/03/15 10:51:06;;;;;;;4.50;2.20;;;7.90;99.90;;;;;;5070173;28;20514;-52
2023/03/15 10:53:34;;;;;;;5.40;2.30;;;6.70;99.90;;;;;;5067368;28;20465;-52
2023/03/15 10:56:03;;;;;;;10.17;2.27;;;6.30;99.90;;;;;;5057837;28;20449;-52
2023/03/15 10:58:40;;;;;;;3.83;2.93;;;6.20;99.90;;;;;;5071157;28;20558;-52
2023/03/15 11:01:13;;;;;;;8.43;4.27;;;6.00;99.90;;;;;;5067617;28;20441;-52
2023/03/15 11:03:43;;;;;;;5.93;3.10;;;5.90;99.90;;;;;;5062402;28;20453;-52
2023/03/15 11:06:20;;;;;;;8.33;5.27;;;6.20;99.90;;;;;;5070159;28;20886;-52
2023/03/15 11:08:47;;;;;;;5.17;2.30;;;5.70;99.90;;;;;;5068397;28;20495;-53
2023/03/15 11:11:14;;;;;;;4.90;1.77;;;5.50;99.90;;;;;;5061712;28;20457;-52
2023/03/15 11:13:42;;;;;;;3.70;2.50;;;5.10;99.90;;;;;;5065185;28;20956;-51
2023/03/15 11:16:20;;;;;;;7.10;2.63;;;5.60;99.90;;;;;;5062152;28;20454;-52
2023/03/15 11:18:52;;;;;;;6.07;2.73;;;5.90;99.90;;;;;;5058841;28;20512;-52
2023/03/15 11:21:20;;;;;;;4.40;1.70;;;6.80;99.90;;;;;;5056490;28;20470;-52
2023/03/15 11:23:49;;;;;;;8.53;2.10;;;6.30;99.90;;;;;;5070920;28;21265;-52
2023/03/15 11:26:18;;;;;;;6.87;2.63;;;5.80;99.90;;;;;;5060900;28;20466;-52
2023/03/15 11:28:48;;;;;;;8.83;1.70;;;5.90;99.90;;;;;;5065422;28;20486;-52
2023/03/15 11:31:17;;;;;;;5.10;2.17;;;6.00;99.90;;;;;;5063587;28;20457;-52
2023/03/15 11:33:51;;;;;;;4.90;1.80;;;6.80;99.90;;;;;;5050891;28;20583;-52
2023/03/15 11:36:21;;;;;;;3.03;1.70;;;7.20;99.90;;;;;;5065643;28;20454;-52
2023/03/15 11:38:48;;;;;;;14.47;2.50;;;7.00;99.90;;;;;;5067523;28;20861;-52
2023/03/15 11:41:25;;;;;;;5.57;2.57;;;7.20;99.90;;;;;;5067958;28;20519;-52
2023/03/15 11:43:59;;;;;;;5.83;2.20;;;6.80;99.90;;;;;;5058922;28;20485;-52
2023/03/15 11:46:31;;;;;;;8.50;2.50;;;6.60;99.90;;;;;;5061120;28;20465;-52
2023/03/15 11:49:03;;;;;;;3.67;1.70;;;6.20;99.90;;;;;;5060208;28;20559;-51
2023/03/15 11:51:34;;;;;;;7.60;1.80;;;5.90;99.90;;;;;;5067356;28;20527;-51
2023/03/15 11:54:08;;;;;;;6.10;3.83;;;6.20;99.90;;;;;;5064699;28;20515;-52
2023/03/15 11:56:55;;;;;;;8.30;2.50;;;6.40;99.90;;;;;;5063355;28;20457;-52
2023/03/15 11:59:27;;;;;;;7.00;1.90;;;6.50;99.90;;;;;;5063497;28;20477;-52
2023/03/15 12:02:00;;;;;;;6.87;1.50;;;6.50;99.90;;;;;;5059401;28;20466;-52
2023/03/15 12:04:42;;;;;;;5.23;2.03;;;7.00;99.90;;;;;;5053413;28;20465;-53
2023/03/15 12:07:28;;;;;;;3.13;1.80;;;7.30;99.90;;;;;;5063169;28;20532;-51
2023/03/15 12:09:56;;;;;;;4.70;1.77;;;7.40;99.90;;;;;;5066802;28;21004;-52
2023/03/15 12:12:36;;;;;;;3.97;2.10;;;7.40;99.90;;;;;;5071276;28;20457;-53
2023/03/15 12:15:06;;;;;;;1.70;1.43;;;7.20;99.90;;;;;;5062853;28;20981;-53
2023/03/15 12:17:43;;;;;;;4.67;1.80;;;7.30;99.90;;;;;;5071234;28;20526;-52
2023/03/15 12:20:19;;;;;;;6.73;1.90;;;7.30;99.90;;;;;;5071555;28;20538;-52
2023/03/15 12:22:51;;;;;;;7.00;2.00;;;7.10;99.90;;;;;;5071404;28;20536;-52
2023/03/15 12:25:22;;;;;;;3.63;1.87;;;7.30;99.90;;;;;;5053162;28;20470;-53
2023/03/15 12:27:52;;;;;;;10.90;2.23;;;7.50;99.90;;;;;;5065011;28;21048;-52
2023/03/15 12:30:23;;;;;;;4.67;2.10;;;7.90;99.90;;;;;;5073336;28;20448;-52
2023/03/15 12:32:53;;;;;;;6.50;2.40;;;8.10;99.90;;;;;;5075768;28;20851;-52
2023/03/15 12:35:22;;;;;;;4.33;1.83;;;8.50;99.90;;;;;;5074665;28;20465;-53
2023/03/15 12:37:51;;;;;;;7.60;2.40;;;8.70;99.90;;;;;;5069518;28;21006;-53
2023/03/15 12:40:39;;;;;;;5.83;1.93;;;7.80;99.90;;;;;;5073214;28;20481;-52
2023/03/15 12:43:07;;;;;;;4.30;2.00;;;8.00;99.90;;;;;;5073299;28;20524;-52
2023/03/15 12:45:39;;;;;;;3.13;1.80;;;8.30;99.90;;;;;;5065480;28;20467;-52
2023/03/15 12:48:26;;;;;;;7.73;1.77;;;8.70;99.90;;;;;;5067307;28;20984;-52
2023/03/15 12:51:02;;;;;;;5.20;3.00;;;7.90;99.90;;;;;;5055363;28;20449;-52
2023/03/15 12:53:41;;;;;;;8.60;2.40;;;8.40;99.90;;;;;;5070409;28;20912;-52
2023/03/15 12:56:40;;;;;;;5.40;3.50;;;8.50;99.90;;;;;;5070559;28;20487;-52
2023/03/15 12:59:17;;;;;;;13.17;1.93;;;8.60;99.90;;;;;;5071314;28;20485;-53
2023/03/15 13:01:44;;;;;;;6.10;1.43;;;9.40;99.90;;;;;;5073549;28;20954;-52
2023/03/15 13:04:13;;;;;;;5.33;1.90;;;10.00;99.90;;;;;;5074838;28;20445;-53
2023/03/15 13:06:54;;;;;;;3.47;1.70;;;10.10;99.90;;;;;;5070345;28;20887;-52
2023/03/15 13:09:40;;;;;;;4.93;2.40;;;8.60;99.90;;;;;;5073251;28;20486;-53
2023/03/15 13:12:14;;;;;;;3.13;1.50;;;7.90;99.90;;;;;;5074871;28;20445;-53
2023/03/15 13:14:46;;;;;;;3.70;1.70;;;7.80;99.90;;;;;;5074177;28;20445;-52
2023/03/15 13:17:25;;;;;;;6.30;2.60;;;7.40;99.90;;;;;;5073931;28;20477;-51
2023/03/15 13:20:06;;;;;;;3.03;1.83;;;7.40;99.90;;;;;;5063730;28;20480;-52
2023/03/15 13:22:43;;;;;;;6.90;2.23;;;7.10;99.90;;;;;;5066335;28;20437;-52
2023/03/15 13:25:16;;;;;;;3.03;2.00;;;6.80;99.90;;;;;;5073052;28;20457;-52
2023/03/15 13:27:52;;;;;;;2.73;2.20;;;6.50;99.90;;;;;;5062579;28;20976;-52
2023/03/15 13:30:31;;;;;;;4.30;2.50;;;6.20;99.90;;;;;;5054562;28;20827;-52
2023/03/15 13:33:18;;;;;;;7.57;2.80;;;6.10;99.90;;;;;;5054746;28;20431;-52
2023/03/15 13:35:48;;;;;;;4.50;1.90;;;5.90;99.90;;;;;;5062864;28;20465;-53
2023/03/15 13:38:25;;;;;;;7.03;1.70;;;5.90;99.90;;;;;;5064893;28;20527;-52
2023/03/15 13:40:52;;;;;;;5.17;2.23;;;6.10;99.90;;;;;;5064509;28;20468;-53
2023/03/15 13:43:18;;;;;;;3.90;1.53;;;7.70;99.90;;;;;;5072245;28;20510;-53
2023/03/15 13:45:45;;;;;;;5.70;2.47;;;8.10;99.90;;;;;;5066971;28;20943;-52